createdAt,value
2022-08-25T00:02:02.043Z,100.00
2022-08-25T00:04:29.762Z,100.00
2022-08-25T00:07:02.230Z,100.00
2022-08-25T00:09:31.478Z,100.00
2022-08-25T00:11:58.585Z,100.00
2022-08-25T00:14:29.261Z,100.00
2022-08-25T00:16:56.226Z,100.00
2022-08-25T00:19:26.944Z,100.00
2022-08-25T00:21:56.088Z,100.00
2022-08-25T00:24:24.439Z,100.00
2022-08-25T00:26:55.014Z,100.00
2022-08-25T00:29:23.014Z,100.00
2022-08-25T00:31:49.608Z,100.00
2022-08-25T00:34:20.415Z,100.00
2022-08-25T00:36:47.314Z,100.00
2022-08-25T00:39:14.487Z,100.00
2022-08-25T00:41:43.178Z,100.00
2022-08-25T00:44:12.686Z,100.00
2022-08-25T00:46:45.913Z,100.00
2022-08-25T00:49:31.990Z,100.00
2022-08-25T00:51:58.369Z,100.00
2022-08-25T00:54:47.817Z,100.00
2022-08-25T00:57:16.558Z,100.00
2022-08-25T00:59:44.443Z,100.00
2022-08-25T01:02:14.006Z,100.00
2022-08-25T01:04:48.906Z,100.00
2022-08-25T01:07:19.491Z,100.00
2022-08-25T01:09:49.841Z,100.00
2022-08-25T01:12:16.642Z,100.00
2022-08-25T01:14:46.018Z,100.00
2022-08-25T01:17:14.234Z,100.00
2022-08-25T01:19:41.074Z,100.00
2022-08-25T01:22:07.784Z,100.00
2022-08-25T01:24:34.303Z,100.00
2022-08-25T01:27:01.369Z,100.00
2022-08-25T01:29:28.415Z,100.00
2022-08-25T01:31:59.050Z,100.00
2022-08-25T01:34:31.751Z,100.00
2022-08-25T01:37:00.214Z,100.00
2022-08-25T01:39:28.883Z,100.00
2022-08-25T01:42:08.989Z,100.00
2022-08-25T01:44:46.297Z,100.00
2022-08-25T01:47:14.261Z,100.00
2022-08-25T01:49:40.896Z,100.00
2022-08-25T01:52:10.494Z,100.00
2022-08-25T01:54:37.117Z,100.00
2022-08-25T01:57:04.291Z,100.00
2022-08-25T01:59:30.898Z,100.00
2022-08-25T02:02:00.043Z,100.00
2022-08-25T02:04:32.062Z,100.00
2022-08-25T02:07:05.437Z,100.00
2022-08-25T02:09:32.528Z,100.00
2022-08-25T02:11:59.340Z,100.00
2022-08-25T02:14:26.016Z,100.00
2022-08-25T02:16:54.972Z,100.00
2022-08-25T02:19:24.413Z,100.00
2022-08-25T02:21:51.285Z,100.00
2022-08-25T02:24:18.780Z,100.00
2022-08-25T02:26:45.518Z,100.00
2022-08-25T02:29:12.427Z,100.00
2022-08-25T02:31:39.831Z,100.00
2022-08-25T02:34:07.921Z,100.00
2022-08-25T02:36:35.087Z,100.00
2022-08-25T02:39:02.283Z,100.00
2022-08-25T02:41:31.841Z,100.00
2022-08-25T02:44:02.772Z,100.00
2022-08-25T02:46:29.623Z,100.00
2022-08-25T02:48:56.574Z,100.00
2022-08-25T02:51:25.547Z,100.00
2022-08-25T02:53:52.497Z,100.00
2022-08-25T02:56:19.855Z,100.00
2022-08-25T02:58:48.028Z,100.00
2022-08-25T03:01:15.787Z,100.00
2022-08-25T03:03:45.912Z,100.00
2022-08-25T03:06:15.497Z,100.00
2022-08-25T03:08:43.055Z,100.00
2022-08-25T03:11:10.841Z,100.00
2022-08-25T03:13:37.907Z,100.00
2022-08-25T03:16:10.977Z,100.00
2022-08-25T03:18:39.525Z,100.00
2022-08-25T03:21:07.575Z,100.00
2022-08-25T03:23:34.148Z,100.00
2022-08-25T03:26:20.491Z,100.00
2022-08-25T03:28:47.181Z,100.00
2022-08-25T03:31:13.890Z,100.00
2022-08-25T03:33:40.593Z,100.00
2022-08-25T03:36:08.596Z,100.00
2022-08-25T03:38:38.259Z,100.00
2022-08-25T03:41:23.656Z,100.00
2022-08-25T03:43:53.860Z,100.00
2022-08-25T03:46:24.800Z,100.00
2022-08-25T03:48:52.324Z,100.00
2022-08-25T03:51:24.264Z,100.00
2022-08-25T03:53:51.482Z,100.00
2022-08-25T03:56:18.665Z,100.00
2022-08-25T03:58:45.813Z,100.00
2022-08-25T04:01:12.557Z,100.00
2022-08-25T04:03:39.261Z,100.00
2022-08-25T04:06:07.760Z,100.00
2022-08-25T04:08:34.829Z,100.00
2022-08-25T04:11:13.948Z,100.00
2022-08-25T04:13:45.740Z,100.00
2022-08-25T04:16:15.014Z,100.00
2022-08-25T04:18:42.832Z,100.00
2022-08-25T04:21:11.205Z,100.00
2022-08-25T04:23:42.724Z,100.00
2022-08-25T04:26:32.601Z,100.00
2022-08-25T04:29:00.866Z,100.00
2022-08-25T04:31:28.815Z,100.00
2022-08-25T04:33:55.523Z,100.00
2022-08-25T04:36:22.632Z,100.00
2022-08-25T04:38:50.058Z,100.00
2022-08-25T04:41:21.186Z,100.00
2022-08-25T04:43:48.515Z,100.00
2022-08-25T04:46:23.444Z,100.00
2022-08-25T04:48:53.485Z,100.00
2022-08-25T04:51:26.361Z,100.00
2022-08-25T04:53:54.316Z,100.00
2022-08-25T04:56:25.063Z,100.00
2022-08-25T04:58:53.550Z,100.00
2022-08-25T05:01:24.212Z,100.00
2022-08-25T05:03:59.650Z,100.00
2022-08-25T05:06:27.501Z,100.00
2022-08-25T05:08:54.263Z,100.00
2022-08-25T05:11:21.900Z,100.00
2022-08-25T05:13:52.714Z,100.00
2022-08-25T05:16:21.841Z,100.00
2022-08-25T05:18:50.507Z,100.00
2022-08-25T05:21:20.216Z,100.00
2022-08-25T05:23:47.675Z,100.00
2022-08-25T05:26:20.652Z,100.00
2022-08-25T05:28:50.404Z,100.00
2022-08-25T05:31:17.978Z,100.00
2022-08-25T05:33:44.669Z,100.00
2022-08-25T05:36:13.739Z,100.00
2022-08-25T05:38:41.840Z,100.00
2022-08-25T05:41:12.096Z,100.00
2022-08-25T05:43:41.008Z,100.00
2022-08-25T05:46:09.265Z,100.00
2022-08-25T05:48:36.633Z,100.00
2022-08-25T05:51:06.933Z,100.00
2022-08-25T05:53:34.251Z,100.00
2022-08-25T05:56:01.923Z,100.00
2022-08-25T05:58:29.657Z,100.00
2022-08-25T06:00:58.387Z,100.00
2022-08-25T06:03:25.107Z,100.00
2022-08-25T06:05:51.749Z,100.00
2022-08-25T06:08:19.482Z,100.00
2022-08-25T06:10:51.696Z,100.00
2022-08-25T06:13:26.953Z,100.00
2022-08-25T06:15:59.801Z,100.00
2022-08-25T06:18:26.914Z,100.00
2022-08-25T06:20:54.018Z,100.00
2022-08-25T06:23:20.641Z,100.00
2022-08-25T06:25:51.810Z,100.00
2022-08-25T06:28:19.313Z,100.00
2022-08-25T06:30:46.901Z,100.00
2022-08-25T06:33:14.728Z,100.00
2022-08-25T06:35:43.216Z,100.00
2022-08-25T06:38:11.039Z,100.00
2022-08-25T06:40:38.484Z,100.00
2022-08-25T06:43:08.778Z,100.00
2022-08-25T06:45:35.855Z,100.00
2022-08-25T06:48:02.527Z,100.00
2022-08-25T06:50:29.410Z,100.00
2022-08-25T06:52:56.066Z,100.00
2022-08-25T06:55:22.693Z,100.00
2022-08-25T06:57:53.333Z,100.00
2022-08-25T07:00:22.538Z,100.00
2022-08-25T07:02:57.624Z,100.00
2022-08-25T07:05:33.589Z,100.00
2022-08-25T07:08:07.320Z,100.00
2022-08-25T07:10:33.922Z,100.00
2022-08-25T07:13:01.565Z,100.00
2022-08-25T07:15:28.230Z,100.00
2022-08-25T07:17:54.937Z,100.00
2022-08-25T07:22:54.025Z,100.00
2022-08-25T07:25:20.616Z,100.00
2022-08-25T07:27:47.195Z,100.00
2022-08-25T07:30:13.904Z,100.00
2022-08-25T07:32:42.241Z,100.00
2022-08-25T07:35:18.920Z,100.00
2022-08-25T07:37:52.017Z,100.00
2022-08-25T07:40:24.324Z,100.00
2022-08-25T07:42:52.841Z,100.00
2022-08-25T07:45:21.234Z,99.82
2022-08-25T07:47:48.530Z,97.27
2022-08-25T07:50:18.656Z,93.59
2022-08-25T07:52:49.727Z,88.92
2022-08-25T07:55:20.640Z,85.05
2022-08-25T07:57:48.972Z,85.01
2022-08-25T08:00:21.843Z,86.34
2022-08-25T08:02:48.572Z,85.45
2022-08-25T08:05:15.530Z,83.95
2022-08-25T08:07:43.986Z,82.75
2022-08-25T08:13:01.708Z,84.73
2022-08-25T08:15:29.704Z,79.72
2022-08-25T08:17:58.116Z,75.88
2022-08-25T08:20:26.869Z,71.92
2022-08-25T08:22:53.631Z,68.49
2022-08-25T08:25:21.594Z,65.56
2022-08-25T08:27:55.050Z,65.25
2022-08-25T08:30:22.267Z,62.52
2022-08-25T08:33:09.311Z,62.36
2022-08-25T08:35:36.615Z,62.58
2022-08-25T08:38:03.421Z,60.16
2022-08-25T08:40:33.760Z,60.21
2022-08-25T08:43:18.226Z,59.44
2022-08-25T08:45:51.944Z,56.32
2022-08-25T08:48:41.973Z,56.90
2022-08-25T08:51:42.349Z,53.96
2022-08-25T08:54:23.121Z,53.80
2022-08-25T08:56:55.186Z,50.99
2022-08-25T08:59:30.089Z,49.78
2022-08-25T09:02:02.733Z,49.95
2022-08-25T09:04:55.071Z,49.19
2022-08-25T09:07:32.275Z,48.12
2022-08-25T09:09:59.471Z,46.28
2022-08-25T09:12:56.847Z,46.44
2022-08-25T09:16:20.451Z,44.88
2022-08-25T09:19:25.987Z,44.91
2022-08-25T09:22:35.909Z,45.84
2022-08-25T09:25:29.456Z,45.38
2022-08-25T09:28:33.280Z,44.18
2022-08-25T09:31:27.510Z,43.05
2022-08-25T09:34:00.038Z,44.69
2022-08-25T09:36:30.140Z,43.38
2022-08-25T09:38:57.969Z,42.42
2022-08-25T09:41:52.087Z,42.10
2022-08-25T09:44:29.363Z,44.02
2022-08-25T09:47:01.908Z,41.81
2022-08-25T09:49:43.962Z,41.91
2022-08-25T09:52:29.070Z,42.17
2022-08-25T09:54:59.441Z,41.98
2022-08-25T09:57:35.055Z,42.73
2022-08-25T10:00:19.628Z,41.90
2022-08-25T10:03:05.606Z,38.47
2022-08-25T10:05:37.590Z,40.08
2022-08-25T10:08:14.678Z,39.87
2022-08-25T10:10:54.947Z,39.09
2022-08-25T10:13:25.065Z,38.38
2022-08-25T10:16:24.506Z,37.70
2022-08-25T10:19:10.306Z,38.11
2022-08-25T10:21:39.330Z,37.67
2022-08-25T10:24:11.308Z,37.60
2022-08-25T10:26:56.882Z,36.90
2022-08-25T10:29:32.500Z,36.79
2022-08-25T10:32:24.555Z,36.73
2022-08-25T10:34:58.631Z,36.19
2022-08-25T10:37:28.576Z,36.24
2022-08-25T10:40:07.994Z,35.58
2022-08-25T10:43:00.888Z,36.63
2022-08-25T10:45:43.638Z,37.01
2022-08-25T10:48:40.754Z,36.75
2022-08-25T10:51:40.975Z,36.58
2022-08-25T10:54:30.577Z,36.08
2022-08-25T10:57:08.184Z,36.39
2022-08-25T10:59:36.762Z,36.09
2022-08-25T11:02:21.671Z,36.97
2022-08-25T11:05:05.359Z,36.57
2022-08-25T11:07:46.946Z,37.37
2022-08-25T11:10:26.024Z,38.07
2022-08-25T11:12:59.815Z,37.77
2022-08-25T11:15:41.480Z,37.77
2022-08-25T11:18:16.870Z,36.68
2022-08-25T11:20:53.762Z,35.80
2022-08-25T11:30:19.209Z,35.60
2022-08-25T11:32:52.162Z,36.17
2022-08-25T11:35:42.651Z,34.99
2022-08-25T11:38:34.908Z,33.74
2022-08-25T11:41:27.175Z,33.78
2022-08-25T11:44:26.934Z,34.09
2022-08-25T11:47:21.170Z,32.49
2022-08-25T11:50:29.878Z,31.52
2022-08-25T11:53:23.607Z,31.63
2022-08-25T11:55:58.911Z,30.60
2022-08-25T11:58:28.482Z,30.90
2022-08-25T12:01:00.447Z,30.90
2022-08-25T12:03:34.023Z,30.48
2022-08-25T12:06:15.890Z,29.75
2022-08-25T12:08:57.513Z,29.72
2022-08-25T12:11:47.484Z,29.47
2022-08-25T12:14:36.461Z,29.82
2022-08-25T12:17:18.282Z,30.33
2022-08-25T12:19:44.910Z,29.38
2022-08-25T12:22:11.465Z,29.04
2022-08-25T12:24:53.844Z,28.86
2022-08-25T12:27:38.282Z,27.98
2022-08-25T12:30:21.125Z,27.73
2022-08-25T12:33:11.971Z,27.69
2022-08-25T12:35:49.730Z,27.13
2022-08-25T12:38:50.928Z,26.87
2022-08-25T12:41:26.535Z,25.13
2022-08-25T12:44:08.956Z,25.31
2022-08-25T12:46:39.465Z,25.26
2022-08-25T12:49:18.287Z,23.70
2022-08-25T12:51:54.228Z,23.87
2022-08-25T12:54:36.969Z,22.69
2022-08-25T12:57:29.389Z,21.59
2022-08-25T13:00:01.056Z,20.84
2022-08-25T13:03:09.879Z,19.71
2022-08-25T13:05:54.916Z,19.15
2022-08-25T13:08:48.602Z,18.27
2022-08-25T13:11:40.851Z,17.28
2022-08-25T13:14:42.123Z,17.17
2022-08-25T13:17:11.073Z,17.05
2022-08-25T13:19:38.417Z,16.99
2022-08-25T13:22:17.722Z,17.57
2022-08-25T13:24:50.441Z,17.99
2022-08-25T13:27:28.176Z,19.00
2022-08-25T13:30:03.703Z,20.00
2022-08-25T13:32:35.085Z,20.60
2022-08-25T13:35:20.945Z,20.32
2022-08-25T13:37:48.273Z,20.32
2022-08-25T13:40:33.361Z,18.47
2022-08-25T13:43:05.791Z,18.04
2022-08-25T13:45:41.477Z,18.11
2022-08-25T13:48:22.432Z,17.46
2022-08-25T13:50:52.659Z,16.74
2022-08-25T13:53:25.882Z,16.17
2022-08-25T13:55:58.698Z,15.28
2022-08-25T13:58:38.668Z,14.94
2022-08-25T14:01:47.201Z,14.90
2022-08-25T14:04:24.247Z,15.19
2022-08-25T14:07:08.389Z,14.81
2022-08-25T14:09:49.335Z,14.55
2022-08-25T14:15:02.819Z,15.04
2022-08-25T14:17:39.436Z,14.72
2022-08-25T14:20:20.439Z,14.59
2022-08-25T14:22:47.878Z,13.79
2022-08-25T14:25:15.147Z,13.68
2022-08-25T14:28:03.665Z,13.81
2022-08-25T14:30:34.889Z,13.40
2022-08-25T14:33:04.025Z,13.08
2022-08-25T14:35:31.753Z,13.69
2022-08-25T14:37:58.966Z,13.89
2022-08-25T14:40:25.779Z,14.19
2022-08-25T14:42:52.437Z,14.71
2022-08-25T14:45:19.428Z,15.70
2022-08-25T14:47:49.729Z,16.36
2022-08-25T14:50:24.735Z,17.40
2022-08-25T14:52:52.185Z,17.97
2022-08-25T14:55:32.234Z,18.96
2022-08-25T14:57:59.937Z,19.25
2022-08-25T15:00:26.612Z,19.79
2022-08-25T15:02:54.918Z,20.60
2022-08-25T15:05:27.058Z,20.76
2022-08-25T15:08:14.254Z,20.30
2022-08-25T15:10:42.176Z,19.67
2022-08-25T15:13:10.738Z,19.00
2022-08-25T15:15:52.311Z,18.56
2022-08-25T15:18:21.141Z,18.35
2022-08-25T15:20:50.073Z,17.88
2022-08-25T15:23:18.550Z,18.12
2022-08-25T15:25:48.025Z,17.28
2022-08-25T15:28:17.089Z,16.65
2022-08-25T15:30:45.154Z,16.50
2022-08-25T15:33:13.161Z,16.76
2022-08-25T15:35:41.003Z,16.72
2022-08-25T15:38:08.211Z,16.55
2022-08-25T15:40:37.629Z,16.55
2022-08-25T15:43:04.982Z,17.20
2022-08-25T15:45:32.082Z,17.27
2022-08-25T15:47:59.548Z,17.73
2022-08-25T15:50:26.902Z,18.53
2022-08-25T15:52:53.617Z,18.65
2022-08-25T15:55:20.993Z,19.29
2022-08-25T15:57:49.719Z,20.01
2022-08-25T16:00:18.182Z,20.99
2022-08-25T16:02:45.466Z,21.61
2022-08-25T16:05:16.283Z,21.69
2022-08-25T16:07:45.918Z,23.05
2022-08-25T16:10:13.607Z,23.43
2022-08-25T16:12:40.320Z,23.87
2022-08-25T16:15:09.983Z,24.20
2022-08-25T16:17:40.965Z,24.56
2022-08-25T16:20:12.591Z,25.24
2022-08-25T16:22:40.359Z,25.38
2022-08-25T16:25:07.509Z,25.95
2022-08-25T16:27:38.644Z,26.43
2022-08-25T16:30:09.126Z,26.64
2022-08-25T16:32:37.055Z,27.26
2022-08-25T16:35:05.732Z,28.31
2022-08-25T16:37:37.774Z,27.97
2022-08-25T16:40:05.274Z,28.08
2022-08-25T16:42:31.959Z,29.03
2022-08-25T16:44:59.911Z,29.21
2022-08-25T16:47:26.959Z,29.25
2022-08-25T16:49:54.132Z,29.75
2022-08-25T16:52:40.651Z,29.79
2022-08-25T16:55:12.815Z,30.55
2022-08-25T16:57:41.405Z,30.85
2022-08-25T17:00:13.539Z,31.27
2022-08-25T17:02:41.605Z,31.48
2022-08-25T17:05:10.243Z,32.81
2022-08-25T17:07:37.422Z,34.18
2022-08-25T17:10:05.661Z,35.28
2022-08-25T17:12:32.786Z,37.12
2022-08-25T17:14:59.490Z,37.10
2022-08-25T17:17:27.073Z,37.07
2022-08-25T17:19:54.876Z,39.05
2022-08-25T17:22:22.574Z,40.47
2022-08-25T17:24:53.419Z,42.15
2022-08-25T17:27:27.284Z,39.87
2022-08-25T17:29:54.611Z,42.28
2022-08-25T17:32:28.872Z,43.98
2022-08-25T17:34:57.812Z,46.64
2022-08-25T17:37:24.632Z,48.07
2022-08-25T17:39:56.711Z,49.34
2022-08-25T17:42:31.630Z,53.05
2022-08-25T17:44:58.249Z,51.06
2022-08-25T17:47:26.991Z,59.15
2022-08-25T17:49:54.343Z,59.48
2022-08-25T17:52:25.423Z,65.94
2022-08-25T17:54:52.941Z,72.23
2022-08-25T17:57:19.809Z,70.55
2022-08-25T17:59:48.095Z,66.06
2022-08-25T18:02:14.930Z,67.67
2022-08-25T18:04:42.491Z,69.96
2022-08-25T18:07:12.016Z,73.50
2022-08-25T18:09:38.669Z,73.27
2022-08-25T18:12:05.652Z,68.02
2022-08-25T18:14:32.304Z,71.95
2022-08-25T18:17:00.234Z,69.20
2022-08-25T18:19:26.946Z,70.53
2022-08-25T18:21:53.614Z,69.95
2022-08-25T18:24:21.097Z,69.18
2022-08-25T18:26:50.515Z,65.74
2022-08-25T18:29:17.372Z,66.42
2022-08-25T18:31:46.584Z,65.51
2022-08-25T18:34:15.994Z,68.07
2022-08-25T18:36:42.730Z,65.24
2022-08-25T18:39:34.576Z,66.17
2022-08-25T18:42:03.078Z,66.79
2022-08-25T18:44:31.601Z,67.21
2022-08-25T18:46:58.797Z,65.29
2022-08-25T18:49:26.755Z,63.49
2022-08-25T18:51:55.573Z,64.49
2022-08-25T18:54:23.071Z,67.38
2022-08-25T18:56:52.477Z,66.90
2022-08-25T18:59:19.989Z,69.19
2022-08-25T19:01:50.983Z,68.00
2022-08-25T19:04:17.783Z,67.44
2022-08-25T19:06:44.825Z,66.75
2022-08-25T19:09:11.968Z,67.03
2022-08-25T19:11:38.804Z,66.75
2022-08-25T19:14:08.086Z,67.66
2022-08-25T19:16:42.548Z,68.33
2022-08-25T19:19:13.318Z,71.13
2022-08-25T19:21:41.416Z,73.05
2022-08-25T19:24:10.385Z,70.81
2022-08-25T19:26:38.916Z,73.73
2022-08-25T19:29:09.417Z,75.31
2022-08-25T19:31:37.622Z,71.12
2022-08-25T19:34:07.368Z,73.10
2022-08-25T19:36:34.288Z,72.47
2022-08-25T19:39:02.152Z,72.08
2022-08-25T19:41:31.373Z,73.32
2022-08-25T19:43:59.473Z,73.73
2022-08-25T19:46:35.662Z,76.33
2022-08-25T19:49:19.078Z,75.52
2022-08-25T19:51:50.530Z,77.95
2022-08-25T19:54:26.421Z,81.30
2022-08-25T19:56:54.481Z,86.35
2022-08-25T19:59:40.689Z,83.23
2022-08-25T20:02:15.487Z,81.23
2022-08-25T20:04:49.719Z,82.08
2022-08-25T20:07:19.053Z,82.55
2022-08-25T20:09:45.935Z,82.20
2022-08-25T20:12:12.990Z,81.95
2022-08-25T20:14:40.045Z,81.31
2022-08-25T20:17:14.617Z,80.50
2022-08-25T20:19:56.124Z,83.72
2022-08-25T20:22:26.145Z,82.73
2022-08-25T20:24:58.112Z,81.15
2022-08-25T20:27:36.272Z,81.13
2022-08-25T20:30:06.044Z,83.23
2022-08-25T20:32:33.604Z,83.82
2022-08-25T20:35:02.451Z,83.33
2022-08-25T20:37:30.531Z,84.72
2022-08-25T20:39:57.650Z,85.64
2022-08-25T20:42:25.023Z,86.07
2022-08-25T20:44:51.821Z,86.81
2022-08-25T20:47:21.026Z,86.51
2022-08-25T20:49:48.494Z,88.87
2022-08-25T20:52:16.014Z,88.90
2022-08-25T20:54:46.983Z,89.82
2022-08-25T20:57:17.751Z,90.59
2022-08-25T20:59:44.375Z,91.56
2022-08-25T21:02:11.073Z,90.96
2022-08-25T21:04:39.970Z,92.46
2022-08-25T21:07:17.625Z,92.92
2022-08-25T21:09:44.606Z,93.90
2022-08-25T21:12:11.219Z,94.75
2022-08-25T21:14:40.739Z,95.86
2022-08-25T21:17:10.519Z,94.41
2022-08-25T21:19:38.906Z,96.29
2022-08-25T21:22:07.525Z,96.74
2022-08-25T21:24:34.565Z,97.97
2022-08-25T21:27:03.249Z,98.90
2022-08-25T21:29:32.565Z,99.20
2022-08-25T21:32:00.207Z,99.28
2022-08-25T21:34:29.107Z,100.00
2022-08-25T21:36:57.857Z,100.00
2022-08-25T21:39:27.472Z,100.00
2022-08-25T21:41:58.550Z,100.00
2022-08-25T21:44:26.914Z,100.00
2022-08-25T21:46:54.584Z,100.00
2022-08-25T21:49:22.553Z,100.00
2022-08-25T21:51:59.326Z,100.00
2022-08-25T21:54:28.781Z,100.00
2022-08-25T21:56:59.697Z,100.00
2022-08-25T21:59:31.908Z,100.00
2022-08-25T22:02:00.713Z,100.00
2022-08-25T22:04:28.458Z,100.00
2022-08-25T22:06:55.741Z,100.00
2022-08-25T22:09:25.166Z,100.00
2022-08-25T22:11:54.642Z,100.00
2022-08-25T22:14:22.033Z,100.00
2022-08-25T22:16:48.664Z,100.00
2022-08-25T22:19:15.343Z,100.00
2022-08-25T22:21:43.965Z,100.00
2022-08-25T22:24:11.747Z,100.00
2022-08-25T22:26:39.102Z,100.00
2022-08-25T22:29:06.600Z,100.00
2022-08-25T22:31:35.003Z,100.00
2022-08-25T22:34:03.630Z,100.00
2022-08-25T22:36:34.441Z,100.00
2022-08-25T22:39:02.225Z,100.00
2022-08-25T22:41:30.154Z,100.00
2022-08-25T22:43:57.711Z,100.00
2022-08-25T22:46:26.231Z,100.00
2022-08-25T22:48:55.586Z,100.00
2022-08-25T22:51:27.709Z,100.00
2022-08-25T22:53:54.796Z,100.00
2022-08-25T22:56:29.823Z,100.00
2022-08-25T22:59:03.147Z,100.00
2022-08-25T23:01:31.872Z,100.00
2022-08-25T23:04:01.770Z,100.00
2022-08-25T23:06:28.789Z,100.00
2022-08-25T23:08:56.261Z,100.00
2022-08-25T23:11:24.572Z,100.00
2022-08-25T23:13:55.356Z,100.00
2022-08-25T23:16:22.537Z,100.00
2022-08-25T23:18:49.311Z,100.00
2022-08-25T23:21:38.024Z,100.00
2022-08-25T23:24:10.708Z,100.00
2022-08-25T23:26:42.570Z,100.00
2022-08-25T23:29:18.639Z,100.00
2022-08-25T23:31:47.688Z,100.00
2022-08-25T23:34:16.578Z,100.00
2022-08-25T23:36:43.813Z,100.00
2022-08-25T23:39:10.922Z,100.00
2022-08-25T23:41:37.592Z,100.00
2022-08-25T23:44:05.483Z,100.00
2022-08-25T23:46:35.002Z,100.00
2022-08-25T23:49:03.145Z,100.00
2022-08-25T23:51:34.322Z,100.00
2022-08-25T23:54:09.146Z,100.00
2022-08-25T23:56:37.251Z,100.00
2022-08-25T23:59:09.739Z,100.00
